createdAt,value
2023-04-20T00:00:48.607Z,0.51
2023-04-20T00:01:48.724Z,0.52
2023-04-20T00:02:48.860Z,0.51
2023-04-20T00:03:48.870Z,0.51
2023-04-20T00:04:48.825Z,0.52
2023-04-20T00:05:48.895Z,0.52
2023-04-20T00:06:48.895Z,0.51
2023-04-20T00:07:48.930Z,0.51
2023-04-20T00:08:49.078Z,0.52
2023-04-20T00:09:49.067Z,0.52
2023-04-20T00:10:49.076Z,0.51
2023-04-20T00:11:49.118Z,0.51
2023-04-20T00:12:49.170Z,0.51
2023-04-20T00:13:49.225Z,0.51
2023-04-20T00:14:49.254Z,0.51
2023-04-20T00:15:49.301Z,0.51
2023-04-20T00:16:49.893Z,0.51
2023-04-20T00:17:49.479Z,0.51
2023-04-20T00:18:49.436Z,0.52
2023-04-20T00:19:49.501Z,0.51
2023-04-20T00:20:49.524Z,0.51
2023-04-20T00:21:49.581Z,0.51
2023-04-20T00:22:49.607Z,0.51
2023-04-20T00:23:49.673Z,0.50
2023-04-20T00:24:49.708Z,0.50
2023-04-20T00:25:49.759Z,0.51
2023-04-20T00:26:49.804Z,0.51
2023-04-20T00:27:49.842Z,0.51
2023-04-20T00:28:49.886Z,0.50
2023-04-20T00:29:49.923Z,0.51
2023-04-20T00:30:50.000Z,0.52
2023-04-20T00:31:50.022Z,0.51
2023-04-20T00:32:50.987Z,0.51
2023-04-20T00:33:50.102Z,0.51
2023-04-20T00:34:50.138Z,0.51
2023-04-20T00:35:50.180Z,0.51
2023-04-20T00:36:50.233Z,0.51
2023-04-20T00:37:50.297Z,0.51
2023-04-20T00:38:50.339Z,0.51
2023-04-20T00:39:50.381Z,0.52
2023-04-20T00:40:50.426Z,0.51
2023-04-20T00:41:50.483Z,0.51
2023-04-20T00:42:50.528Z,0.51
2023-04-20T00:43:50.596Z,0.50
2023-04-20T00:44:50.645Z,0.51
2023-04-20T00:45:50.699Z,0.52
2023-04-20T00:46:50.711Z,0.51
2023-04-20T00:47:50.820Z,0.50
2023-04-20T00:48:50.802Z,0.51
2023-04-20T00:49:50.843Z,0.51
2023-04-20T00:50:50.885Z,0.51
2023-04-20T00:51:51.004Z,0.51
2023-04-20T00:52:50.982Z,0.51
2023-04-20T00:53:51.050Z,0.51
2023-04-20T00:54:51.105Z,0.52
2023-04-20T00:55:51.141Z,0.51
2023-04-20T00:56:51.303Z,0.51
2023-04-20T00:57:51.247Z,0.51
2023-04-20T00:58:51.308Z,0.51
2023-04-20T00:59:51.907Z,0.52
2023-04-20T01:00:51.415Z,0.51
2023-04-20T01:01:51.534Z,0.50
2023-04-20T01:02:52.555Z,0.51
2023-04-20T01:03:51.632Z,0.51
2023-04-20T01:04:51.621Z,0.51
2023-04-20T01:05:51.686Z,0.51
2023-04-20T01:06:51.732Z,0.51
2023-04-20T01:07:51.772Z,0.51
2023-04-20T01:08:51.897Z,0.52
2023-04-20T01:09:51.875Z,0.52
2023-04-20T01:10:51.915Z,0.52
2023-04-20T01:11:51.964Z,0.52
2023-04-20T01:12:52.016Z,0.51
2023-04-20T01:13:52.066Z,0.51
2023-04-20T01:14:52.112Z,0.51
2023-04-20T01:15:52.211Z,0.51
2023-04-20T01:16:52.225Z,0.52
2023-04-20T01:17:52.423Z,0.51
2023-04-20T01:18:52.321Z,0.51
2023-04-20T01:19:52.361Z,0.51
2023-04-20T01:20:52.464Z,0.50
2023-04-20T01:21:52.467Z,0.50
2023-04-20T01:22:52.503Z,0.51
2023-04-20T01:23:52.557Z,0.50
2023-04-20T01:24:52.621Z,0.51
2023-04-20T01:25:52.657Z,0.51
2023-04-20T01:26:53.397Z,0.50
2023-04-20T01:27:52.751Z,0.51
2023-04-20T01:28:52.830Z,0.51
2023-04-20T01:29:52.843Z,0.51
2023-04-20T01:30:52.898Z,0.50
2023-04-20T01:31:52.970Z,0.51
2023-04-20T01:32:53.043Z,0.51
2023-04-20T01:33:53.041Z,0.51
2023-04-20T01:34:53.185Z,0.51
2023-04-20T01:35:53.129Z,0.52
2023-04-20T01:36:53.184Z,0.50
2023-04-20T01:37:53.225Z,0.50
2023-04-20T01:38:53.296Z,0.50
2023-04-20T01:39:53.983Z,0.50
2023-04-20T01:40:53.368Z,0.51
2023-04-20T01:41:53.392Z,0.51
2023-04-20T01:42:53.447Z,0.51
2023-04-20T01:43:53.484Z,0.51
2023-04-20T01:44:53.511Z,0.51
2023-04-20T01:45:53.561Z,0.51
2023-04-20T01:46:53.647Z,0.51
2023-04-20T01:47:53.753Z,0.52
2023-04-20T01:48:53.691Z,0.51
2023-04-20T01:49:53.732Z,0.51
2023-04-20T01:50:53.776Z,0.51
2023-04-20T01:51:53.820Z,0.52
2023-04-20T01:52:53.902Z,0.51
2023-04-20T01:53:53.917Z,0.52
2023-04-20T01:54:54.041Z,0.52
2023-04-20T01:55:53.994Z,0.51
2023-04-20T01:56:54.027Z,0.52
2023-04-20T01:57:54.068Z,0.51
2023-04-20T01:58:54.116Z,0.51
2023-04-20T01:59:54.154Z,0.51
2023-04-20T02:00:54.269Z,0.50
2023-04-20T02:01:54.935Z,0.50
2023-04-20T02:02:54.366Z,0.52
2023-04-20T02:03:54.492Z,0.50
2023-04-20T02:04:54.376Z,0.51
2023-04-20T02:05:54.421Z,0.51
2023-04-20T02:06:54.444Z,0.51
2023-04-20T02:07:54.504Z,0.51
2023-04-20T02:08:54.515Z,0.51
2023-04-20T02:09:54.549Z,0.52
2023-04-20T02:10:54.591Z,0.52
2023-04-20T02:11:54.610Z,0.52
2023-04-20T02:12:54.676Z,0.51
2023-04-20T02:13:54.694Z,0.51
2023-04-20T02:14:54.712Z,0.51
2023-04-20T02:15:54.774Z,0.51
2023-04-20T02:16:54.817Z,0.52
2023-04-20T02:17:54.904Z,0.51
2023-04-20T02:18:55.011Z,0.52
2023-04-20T02:19:54.967Z,0.51
2023-04-20T02:20:54.965Z,0.51
2023-04-20T02:21:55.002Z,0.51
2023-04-20T02:22:55.017Z,0.51
2023-04-20T02:23:55.058Z,0.50
2023-04-20T02:24:55.103Z,0.51
2023-04-20T02:25:55.922Z,0.52
2023-04-20T02:26:55.185Z,0.50
2023-04-20T02:27:55.216Z,0.52
2023-04-20T02:28:55.258Z,0.51
2023-04-20T02:29:55.292Z,0.51
2023-04-20T02:30:55.378Z,0.51
2023-04-20T02:31:55.356Z,0.51
2023-04-20T02:32:55.460Z,0.50
2023-04-20T02:33:55.437Z,0.51
2023-04-20T02:34:55.501Z,0.50
2023-04-20T02:35:55.513Z,0.51
2023-04-20T02:36:55.554Z,0.51
2023-04-20T02:37:55.582Z,0.51
2023-04-20T02:38:55.620Z,0.51
2023-04-20T02:39:55.651Z,0.51
2023-04-20T02:40:55.682Z,0.51
2023-04-20T02:41:55.716Z,0.51
2023-04-20T02:42:55.834Z,0.51
2023-04-20T02:43:55.796Z,0.51
2023-04-20T02:44:55.828Z,0.50
2023-04-20T02:45:55.867Z,0.51
2023-04-20T02:46:55.927Z,0.51
2023-04-20T02:47:56.085Z,0.52
2023-04-20T02:48:55.950Z,0.51
2023-04-20T02:49:55.986Z,0.51
2023-04-20T02:50:56.017Z,0.51
2023-04-20T02:51:56.052Z,0.51
2023-04-20T02:52:56.091Z,0.51
2023-04-20T02:53:56.123Z,0.51
2023-04-20T02:54:56.157Z,0.51
2023-04-20T02:55:56.199Z,0.51
2023-04-20T02:56:57.826Z,0.50
2023-04-20T02:57:56.248Z,0.51
2023-04-20T02:58:56.291Z,0.52
2023-04-20T02:59:56.362Z,0.50
2023-04-20T03:00:56.339Z,0.52
2023-04-20T03:01:56.461Z,0.52
2023-04-20T03:02:56.581Z,0.50
2023-04-20T03:03:56.515Z,0.52
2023-04-20T03:04:56.470Z,0.52
2023-04-20T03:05:56.853Z,0.51
2023-04-20T03:06:56.539Z,0.51
2023-04-20T03:07:56.594Z,0.51
2023-04-20T03:08:56.676Z,0.51
2023-04-20T03:09:56.640Z,0.52
2023-04-20T03:10:56.677Z,0.51
2023-04-20T03:11:56.701Z,0.51
2023-04-20T03:12:56.736Z,0.50
2023-04-20T03:13:56.766Z,0.50
2023-04-20T03:14:56.797Z,0.50
2023-04-20T03:15:56.856Z,0.53
2023-04-20T03:16:56.848Z,0.51
2023-04-20T03:17:56.901Z,0.52
2023-04-20T03:18:56.915Z,0.51
2023-04-20T03:19:59.938Z,0.51
2023-04-20T03:20:56.947Z,0.52
2023-04-20T03:21:56.937Z,0.52
2023-04-20T03:22:56.936Z,0.52
2023-04-20T03:23:56.938Z,0.51
2023-04-20T03:24:56.934Z,0.51
2023-04-20T03:25:56.978Z,0.51
2023-04-20T03:26:56.998Z,0.51
2023-04-20T03:27:56.999Z,0.50
2023-04-20T03:28:56.941Z,0.51
2023-04-20T03:29:56.929Z,0.51
2023-04-20T03:30:56.920Z,0.51
2023-04-20T03:31:56.983Z,0.51
2023-04-20T03:32:57.026Z,0.50
2023-04-20T03:33:56.928Z,0.50
2023-04-20T03:34:57.438Z,0.51
2023-04-20T03:35:56.905Z,0.51
2023-04-20T03:36:56.909Z,0.51
2023-04-20T03:37:56.903Z,0.51
2023-04-20T03:38:56.950Z,0.52
2023-04-20T03:39:56.885Z,0.50
2023-04-20T03:40:56.878Z,0.52
2023-04-20T03:41:56.875Z,0.51
2023-04-20T03:42:56.942Z,0.51
2023-04-20T03:43:56.881Z,0.51
2023-04-20T03:44:56.881Z,0.50
2023-04-20T03:45:57.487Z,0.51
2023-04-20T03:46:56.890Z,0.51
2023-04-20T03:47:56.909Z,0.51
2023-04-20T03:48:56.962Z,0.51
2023-04-20T03:49:56.874Z,0.51
2023-04-20T03:50:56.869Z,0.51
2023-04-20T03:51:56.867Z,0.51
2023-04-20T03:52:56.857Z,0.51
2023-04-20T03:53:56.846Z,0.51
2023-04-20T03:54:56.856Z,0.51
2023-04-20T03:55:56.865Z,0.50
2023-04-20T03:56:56.820Z,0.50
2023-04-20T03:57:56.851Z,0.51
2023-04-20T03:58:56.822Z,0.51
2023-04-20T03:59:56.821Z,0.51
2023-04-20T04:00:56.864Z,0.51
2023-04-20T04:01:56.855Z,0.51
2023-04-20T04:02:56.933Z,0.51
2023-04-20T04:03:57.083Z,0.51
2023-04-20T04:04:56.866Z,0.51
2023-04-20T04:05:56.776Z,0.51
2023-04-20T04:06:56.805Z,0.51
2023-04-20T04:07:56.763Z,0.51
2023-04-20T04:08:56.750Z,0.51
2023-04-20T04:09:56.822Z,0.51
2023-04-20T04:10:56.722Z,0.51
2023-04-20T04:11:56.726Z,0.52
2023-04-20T04:12:56.713Z,0.51
2023-04-20T04:13:56.790Z,0.52
2023-04-20T04:14:56.702Z,0.52
2023-04-20T04:15:56.736Z,0.52
2023-04-20T04:16:56.731Z,0.51
2023-04-20T04:17:56.725Z,0.51
2023-04-20T04:18:56.678Z,0.51
2023-04-20T04:19:56.683Z,0.51
2023-04-20T04:20:56.729Z,0.51
2023-04-20T04:21:56.654Z,0.52
2023-04-20T04:22:56.688Z,0.52
2023-04-20T04:23:56.655Z,0.51
2023-04-20T04:24:56.655Z,0.52
2023-04-20T04:25:57.460Z,0.51
2023-04-20T04:26:56.625Z,0.51
2023-04-20T04:27:56.623Z,0.51
2023-04-20T04:28:56.651Z,0.51
2023-04-20T04:29:56.690Z,0.51
2023-04-20T04:30:56.769Z,0.51
2023-04-20T04:31:56.753Z,0.52
2023-04-20T04:32:56.810Z,0.52
2023-04-20T04:33:56.822Z,0.51
2023-04-20T04:34:56.844Z,0.51
2023-04-20T04:35:56.925Z,0.52
2023-04-20T04:36:56.914Z,0.52
2023-04-20T04:37:56.956Z,0.51
2023-04-20T04:38:56.983Z,0.52
2023-04-20T04:39:56.995Z,0.51
2023-04-20T04:40:57.027Z,0.51
2023-04-20T04:41:57.060Z,0.51
2023-04-20T04:42:57.085Z,0.51
2023-04-20T04:43:57.124Z,0.51
2023-04-20T04:44:57.150Z,0.51
2023-04-20T04:45:57.209Z,0.50
2023-04-20T04:46:57.213Z,0.50
2023-04-20T04:47:57.400Z,0.51
2023-04-20T04:48:57.273Z,0.52
2023-04-20T04:49:58.057Z,0.52
2023-04-20T04:50:57.336Z,0.52
2023-04-20T04:51:57.447Z,0.51
2023-04-20T04:52:57.397Z,0.51
2023-04-20T04:53:57.439Z,0.51
2023-04-20T04:54:57.455Z,0.51
2023-04-20T04:55:57.483Z,0.50
2023-04-20T04:56:57.500Z,0.51
2023-04-20T04:57:57.533Z,0.51
2023-04-20T04:58:57.581Z,0.51
2023-04-20T04:59:57.597Z,0.51
2023-04-20T05:00:57.629Z,0.50
2023-04-20T05:01:57.716Z,0.51
2023-04-20T05:02:57.841Z,0.52
2023-04-20T05:03:57.916Z,0.51
2023-04-20T05:04:57.752Z,0.52
2023-04-20T05:05:57.789Z,0.51
2023-04-20T05:06:57.821Z,0.52
2023-04-20T05:07:57.848Z,0.50
2023-04-20T05:08:57.969Z,0.51
2023-04-20T05:09:57.896Z,0.51
2023-04-20T05:10:57.925Z,0.52
2023-04-20T05:11:57.957Z,0.52
2023-04-20T05:12:57.998Z,0.51
2023-04-20T05:13:58.026Z,0.52
2023-04-20T05:14:58.113Z,0.51
2023-04-20T05:15:58.102Z,0.51
2023-04-20T05:16:58.105Z,0.50
2023-04-20T05:17:58.179Z,0.52
2023-04-20T05:18:58.166Z,0.51
2023-04-20T05:19:58.193Z,0.51
2023-04-20T05:20:58.217Z,0.51
2023-04-20T05:21:58.283Z,0.51
2023-04-20T05:22:58.289Z,0.51
2023-04-20T05:23:58.330Z,0.51
2023-04-20T05:24:58.354Z,0.51
2023-04-20T05:25:58.387Z,0.51
2023-04-20T05:26:58.400Z,0.53
2023-04-20T05:27:58.438Z,0.53
2023-04-20T05:28:58.423Z,0.55
2023-04-20T05:30:06.456Z,0.55
2023-04-20T05:30:59.423Z,0.55
2023-04-20T05:31:58.463Z,0.56
2023-04-20T05:32:58.429Z,0.57
2023-04-20T05:33:58.390Z,0.60
2023-04-20T05:34:58.472Z,0.63
2023-04-20T05:35:58.387Z,0.68
2023-04-20T05:36:58.368Z,0.72
2023-04-20T05:37:58.346Z,0.75
2023-04-20T05:38:58.327Z,0.78
2023-04-20T05:39:58.318Z,0.82
2023-04-20T05:40:58.379Z,0.86
2023-04-20T05:41:58.478Z,0.90
2023-04-20T05:42:58.481Z,0.95
2023-04-20T05:43:58.563Z,1.01
2023-04-20T05:44:58.575Z,1.05
2023-04-20T05:45:58.775Z,1.10
2023-04-20T05:46:58.664Z,1.13
2023-04-20T05:47:58.761Z,1.20
2023-04-20T05:48:58.777Z,1.26
2023-04-20T05:49:58.796Z,1.32
2023-04-20T05:50:58.853Z,1.40
2023-04-20T05:51:58.857Z,1.45
2023-04-20T05:52:58.905Z,1.48
2023-04-20T05:53:58.934Z,1.56
2023-04-20T05:54:58.952Z,1.69
2023-04-20T05:55:58.986Z,1.80
2023-04-20T05:56:59.002Z,1.94
2023-04-20T05:57:59.037Z,2.09
2023-04-20T05:58:59.053Z,2.16
2023-04-20T05:59:59.074Z,2.22
2023-04-20T06:00:59.094Z,2.34
2023-04-20T06:01:59.164Z,2.37
2023-04-20T06:02:59.277Z,2.47
2023-04-20T06:03:59.450Z,2.55
2023-04-20T06:04:59.257Z,2.65
2023-04-20T06:05:59.213Z,2.69
2023-04-20T06:06:59.167Z,2.84
2023-04-20T06:07:59.152Z,2.93
2023-04-20T06:08:59.174Z,3.04
2023-04-20T06:09:59.157Z,3.14
2023-04-20T06:10:59.211Z,3.24
2023-04-20T06:11:59.161Z,3.26
2023-04-20T06:12:59.214Z,3.35
2023-04-20T06:13:59.138Z,3.56
2023-04-20T06:14:59.145Z,3.68
2023-04-20T06:15:59.144Z,3.73
2023-04-20T06:16:59.121Z,3.79
2023-04-20T06:17:59.175Z,3.99
2023-04-20T06:18:59.104Z,4.07
2023-04-20T06:19:59.079Z,4.20
2023-04-20T06:20:59.078Z,4.37
2023-04-20T06:22:00.795Z,4.47
2023-04-20T06:22:59.049Z,4.79
2023-04-20T06:23:59.033Z,4.94
2023-04-20T06:24:59.031Z,5.13
2023-04-20T06:25:59.024Z,5.00
2023-04-20T06:26:58.994Z,5.05
2023-04-20T06:27:58.985Z,5.00
2023-04-20T06:28:59.003Z,5.10
2023-04-20T06:29:58.991Z,5.19
2023-04-20T06:30:59.044Z,5.28
2023-04-20T06:31:58.992Z,5.37
2023-04-20T06:32:59.031Z,5.30
2023-04-20T06:33:58.990Z,5.31
2023-04-20T06:34:58.972Z,5.40
2023-04-20T06:35:58.978Z,5.64
2023-04-20T06:36:59.013Z,5.64
2023-04-20T06:37:59.003Z,5.79
2023-04-20T06:38:59.001Z,5.96
2023-04-20T06:39:59.927Z,6.19
2023-04-20T06:40:59.029Z,6.24
2023-04-20T06:41:59.036Z,6.50
2023-04-20T06:42:59.024Z,6.61
2023-04-20T06:43:59.050Z,6.77
2023-04-20T06:44:59.056Z,6.85
2023-04-20T06:45:59.089Z,7.11
2023-04-20T06:46:59.112Z,7.09
2023-04-20T06:47:59.110Z,7.32
2023-04-20T06:49:00.014Z,7.56
2023-04-20T06:49:59.165Z,7.77
2023-04-20T06:50:59.209Z,7.91
2023-04-20T06:51:59.101Z,8.09
2023-04-20T06:52:59.084Z,8.17
2023-04-20T06:53:59.119Z,8.42
2023-04-20T06:54:59.152Z,8.63
2023-04-20T06:55:59.175Z,8.84
2023-04-20T06:56:59.215Z,9.02
2023-04-20T06:57:59.227Z,8.96
2023-04-20T06:59:00.020Z,9.21
2023-04-20T06:59:59.325Z,9.27
2023-04-20T07:00:59.356Z,9.50
2023-04-20T07:01:59.455Z,9.63
2023-04-20T07:02:59.564Z,9.76
2023-04-20T07:03:59.620Z,9.92
2023-04-20T07:04:59.559Z,10.04
2023-04-20T07:05:59.584Z,10.15
2023-04-20T07:06:59.609Z,10.75
2023-04-20T07:07:59.667Z,11.18
2023-04-20T07:08:59.708Z,12.02
2023-04-20T07:09:59.762Z,12.00
2023-04-20T07:11:00.675Z,12.44
2023-04-20T07:11:59.850Z,13.02
2023-04-20T07:12:59.885Z,13.09
2023-04-20T07:13:59.936Z,13.09
2023-04-20T07:14:59.975Z,13.49
2023-04-20T07:16:00.083Z,13.52
2023-04-20T07:17:00.066Z,13.87
2023-04-20T07:18:00.164Z,13.87
2023-04-20T07:19:01.010Z,13.68
2023-04-20T07:20:00.243Z,13.56
2023-04-20T07:21:00.193Z,11.37
2023-04-20T07:22:00.334Z,4.18
2023-04-20T07:23:01.016Z,2.74
2023-04-20T07:24:02.447Z,2.55
2023-04-20T07:25:00.180Z,3.03
2023-04-20T07:26:00.173Z,3.15
2023-04-20T07:27:00.202Z,3.07
2023-04-20T07:28:00.194Z,3.17
2023-04-20T07:29:00.524Z,3.34
2023-04-20T07:30:00.218Z,3.56
2023-04-20T07:31:00.185Z,3.68
2023-04-20T07:32:00.201Z,3.91
2023-04-20T07:33:00.170Z,4.05
2023-04-20T07:34:00.134Z,4.08
2023-04-20T07:35:01.117Z,4.18
2023-04-20T07:36:00.088Z,4.12
2023-04-20T07:37:00.050Z,4.17
2023-04-20T07:38:00.069Z,4.25
2023-04-20T07:39:00.124Z,4.38
2023-04-20T07:40:00.128Z,4.42
2023-04-20T07:41:00.542Z,4.66
2023-04-20T07:42:00.128Z,4.71
2023-04-20T07:43:01.041Z,4.86
2023-04-20T07:44:00.210Z,4.85
2023-04-20T07:45:00.252Z,5.10
2023-04-20T07:46:00.421Z,5.29
2023-04-20T07:47:00.957Z,5.36
2023-04-20T07:48:00.386Z,5.48
2023-04-20T07:49:00.393Z,5.67
2023-04-20T07:50:00.404Z,5.71
2023-04-20T07:51:00.453Z,5.95
2023-04-20T07:52:12.859Z,6.04
2023-04-20T07:53:01.544Z,6.06
2023-04-20T07:54:00.682Z,6.12
2023-04-20T07:55:04.245Z,6.23
2023-04-20T07:56:00.380Z,6.07
2023-04-20T07:57:00.354Z,6.16
2023-04-20T07:58:00.330Z,6.38
2023-04-20T07:59:00.423Z,6.71
2023-04-20T08:00:00.290Z,7.25
2023-04-20T08:01:00.254Z,7.50
2023-04-20T08:02:00.472Z,7.57
2023-04-20T08:03:00.310Z,7.81
2023-04-20T08:04:00.302Z,7.95
2023-04-20T08:05:00.239Z,7.92
2023-04-20T08:06:00.295Z,8.20
2023-04-20T08:07:00.063Z,8.39
2023-04-20T08:08:00.037Z,8.61
2023-04-20T08:08:59.994Z,8.70
2023-04-20T08:09:59.960Z,9.07
2023-04-20T08:10:59.951Z,9.26
2023-04-20T08:11:59.902Z,8.43
2023-04-20T08:12:59.876Z,6.44
2023-04-20T08:14:00.540Z,3.51
2023-04-20T08:14:59.819Z,3.03
2023-04-20T08:15:59.846Z,2.40
2023-04-20T08:16:59.873Z,1.68
2023-04-20T08:17:59.854Z,0.82
2023-04-20T08:18:59.743Z,0.43
2023-04-20T08:19:59.710Z,0.34
2023-04-20T08:20:59.700Z,0.34
2023-04-20T08:22:00.686Z,0.34
2023-04-20T08:22:59.687Z,0.41
2023-04-20T08:23:59.680Z,0.55
2023-04-20T08:24:59.658Z,0.58
2023-04-20T08:25:59.668Z,0.60
2023-04-20T08:26:59.660Z,0.69
2023-04-20T08:27:59.636Z,0.80
2023-04-20T08:28:59.648Z,0.90
2023-04-20T08:29:59.629Z,1.00
2023-04-20T08:30:59.638Z,1.11
2023-04-20T08:31:59.741Z,1.25
2023-04-20T08:32:59.595Z,1.39
2023-04-20T08:33:59.585Z,1.51
2023-04-20T08:34:59.551Z,1.67
2023-04-20T08:35:59.560Z,1.80
2023-04-20T08:36:59.535Z,1.93
2023-04-20T08:37:59.515Z,2.09
2023-04-20T08:38:59.599Z,2.21
2023-04-20T08:39:59.532Z,2.36
2023-04-20T08:40:59.523Z,2.53
2023-04-20T08:41:59.549Z,2.69
2023-04-20T08:42:59.572Z,2.88
2023-04-20T08:44:00.078Z,3.07
2023-04-20T08:44:59.654Z,3.19
2023-04-20T08:45:59.714Z,3.34
2023-04-20T08:47:00.038Z,3.60
2023-04-20T08:47:59.814Z,3.82
2023-04-20T08:48:59.836Z,4.11
2023-04-20T08:49:59.876Z,4.21
2023-04-20T08:50:59.918Z,4.44
2023-04-20T08:51:59.960Z,4.71
2023-04-20T08:52:59.990Z,4.98
2023-04-20T08:54:00.046Z,5.06
2023-04-20T08:55:00.070Z,5.47
2023-04-20T08:56:00.271Z,5.71
2023-04-20T08:57:00.151Z,6.16
2023-04-20T08:58:00.159Z,6.44
2023-04-20T08:59:00.170Z,6.67
2023-04-20T09:00:00.204Z,7.09
2023-04-20T09:01:00.219Z,7.20
2023-04-20T09:02:00.321Z,7.46
2023-04-20T09:03:00.379Z,7.97
2023-04-20T09:04:00.511Z,8.11
2023-04-20T09:05:00.404Z,8.53
2023-04-20T09:06:00.302Z,8.68
2023-04-20T09:07:00.315Z,8.58
2023-04-20T09:08:00.341Z,8.79
2023-04-20T09:09:00.451Z,9.14
2023-04-20T09:10:00.401Z,9.49
2023-04-20T09:11:00.430Z,9.77
2023-04-20T09:12:00.378Z,10.26
2023-04-20T09:13:00.391Z,10.28
2023-04-20T09:14:00.414Z,10.92
2023-04-20T09:15:00.426Z,11.40
2023-04-20T09:16:01.104Z,11.59
2023-04-20T09:17:00.431Z,11.55
2023-04-20T09:18:00.490Z,11.70
2023-04-20T09:19:00.617Z,11.54
2023-04-20T09:20:00.504Z,11.62
2023-04-20T09:21:00.490Z,11.24
2023-04-20T09:22:00.630Z,11.46
2023-04-20T09:23:00.623Z,11.29
2023-04-20T09:24:01.516Z,11.32
2023-04-20T09:25:00.478Z,11.36
2023-04-20T09:26:00.526Z,11.39
2023-04-20T09:27:00.441Z,11.34
2023-04-20T09:28:00.462Z,11.26
2023-04-20T09:29:00.415Z,11.31
2023-04-20T09:30:00.404Z,11.18
2023-04-20T09:31:00.421Z,11.06
2023-04-20T09:32:00.414Z,11.16
2023-04-20T09:33:00.524Z,10.89
2023-04-20T09:34:00.431Z,10.86
2023-04-20T09:35:00.556Z,10.76
2023-04-20T09:36:01.059Z,10.73
2023-04-20T09:37:00.567Z,10.68
2023-04-20T09:38:00.591Z,10.53
2023-04-20T09:39:00.623Z,10.57
2023-04-20T09:40:00.626Z,10.40
2023-04-20T09:41:00.621Z,10.24
2023-04-20T09:42:00.637Z,10.15
2023-04-20T09:43:00.652Z,10.23
2023-04-20T09:44:01.078Z,10.08
2023-04-20T09:45:01.611Z,9.87
2023-04-20T09:46:01.617Z,9.82
2023-04-20T09:47:00.668Z,9.98
2023-04-20T09:48:00.679Z,9.75
2023-04-20T09:49:00.629Z,9.73
2023-04-20T09:50:10.265Z,9.66
2023-04-20T09:51:01.747Z,9.67
2023-04-20T09:52:00.584Z,9.68
2023-04-20T09:53:00.580Z,9.53
2023-04-20T09:54:00.540Z,9.50
2023-04-20T09:55:00.510Z,9.41
2023-04-20T09:56:00.495Z,9.45
2023-04-20T09:57:00.463Z,9.18
2023-04-20T09:58:00.454Z,8.98
2023-04-20T09:59:00.423Z,9.09
2023-04-20T10:00:00.466Z,9.02
2023-04-20T10:01:00.394Z,9.10
2023-04-20T10:02:00.471Z,9.13
2023-04-20T10:03:01.329Z,8.95
2023-04-20T10:04:00.419Z,9.04
2023-04-20T10:05:00.305Z,9.15
2023-04-20T10:06:00.261Z,9.10
2023-04-20T10:07:00.269Z,9.05
2023-04-20T10:08:00.198Z,9.09
2023-04-20T10:09:00.186Z,9.00
2023-04-20T10:10:00.176Z,8.91
2023-04-20T10:11:00.160Z,8.96
2023-04-20T10:12:00.187Z,8.79
2023-04-20T10:13:00.108Z,8.73
2023-04-20T10:14:00.140Z,8.65
2023-04-20T10:15:00.055Z,8.70
2023-04-20T10:16:00.110Z,8.60
2023-04-20T10:17:00.143Z,8.47
2023-04-20T10:18:00.048Z,8.42
2023-04-20T10:19:00.102Z,8.35
2023-04-20T10:19:59.937Z,8.22
2023-04-20T10:20:59.919Z,8.28
2023-04-20T10:21:59.915Z,8.18
2023-04-20T10:22:59.936Z,8.19
2023-04-20T10:23:59.888Z,8.12
2023-04-20T10:24:59.890Z,8.09
2023-04-20T10:25:59.854Z,7.97
2023-04-20T10:26:59.841Z,7.89
2023-04-20T10:27:59.825Z,7.81
2023-04-20T10:28:59.827Z,7.78
2023-04-20T10:29:59.797Z,7.82
2023-04-20T10:30:59.814Z,7.62
2023-04-20T10:31:59.780Z,7.64
2023-04-20T10:32:59.844Z,7.52
2023-04-20T10:33:59.735Z,7.51
2023-04-20T10:34:59.731Z,7.34
2023-04-20T10:35:59.702Z,7.27
2023-04-20T10:36:59.710Z,7.21
2023-04-20T10:37:59.686Z,7.15
2023-04-20T10:38:59.706Z,7.19
2023-04-20T10:39:59.679Z,7.07
2023-04-20T10:40:59.656Z,7.00
2023-04-20T10:42:00.633Z,7.01
2023-04-20T10:42:59.610Z,7.04
2023-04-20T10:43:59.580Z,7.04
2023-04-20T10:44:59.593Z,6.95
2023-04-20T10:45:59.608Z,6.98
2023-04-20T10:46:59.530Z,6.87
2023-04-20T10:47:59.553Z,6.78
2023-04-20T10:48:59.546Z,6.81
2023-04-20T10:49:59.450Z,6.68
2023-04-20T10:50:59.432Z,6.81
2023-04-20T10:51:59.436Z,6.52
2023-04-20T10:52:59.391Z,6.56
2023-04-20T10:53:59.376Z,6.49
2023-04-20T10:54:59.417Z,6.55
2023-04-20T10:55:59.362Z,6.49
2023-04-20T10:56:59.343Z,6.43
2023-04-20T10:57:59.317Z,6.33
2023-04-20T10:59:01.850Z,6.33
2023-04-20T10:59:59.264Z,6.39
2023-04-20T11:00:59.250Z,6.30
2023-04-20T11:01:59.277Z,6.23
2023-04-20T11:02:59.306Z,6.09
2023-04-20T11:03:59.192Z,6.16
2023-04-20T11:04:59.190Z,6.02
2023-04-20T11:05:59.135Z,6.08
2023-04-20T11:06:59.120Z,6.06
2023-04-20T11:07:59.081Z,5.99
2023-04-20T11:08:59.073Z,5.92
2023-04-20T11:09:59.046Z,5.93
2023-04-20T11:10:59.024Z,5.81
2023-04-20T11:11:59.015Z,5.76
2023-04-20T11:12:58.980Z,5.79
2023-04-20T11:13:58.986Z,5.92
2023-04-20T11:14:58.961Z,5.74
2023-04-20T11:15:58.935Z,5.70
2023-04-20T11:16:58.962Z,5.58
2023-04-20T11:17:58.912Z,5.56
2023-04-20T11:18:58.929Z,5.57
2023-04-20T11:19:58.894Z,5.57
2023-04-20T11:20:58.843Z,5.52
2023-04-20T11:21:58.824Z,5.57
2023-04-20T11:22:58.792Z,5.51
2023-04-20T11:23:58.793Z,5.43
2023-04-20T11:24:58.762Z,5.48
2023-04-20T11:25:58.739Z,5.37
2023-04-20T11:26:58.719Z,5.33
2023-04-20T11:27:58.718Z,5.23
2023-04-20T11:28:58.668Z,5.23
2023-04-20T11:29:58.705Z,5.25
2023-04-20T11:30:58.636Z,5.28
2023-04-20T11:31:58.654Z,5.19
2023-04-20T11:32:58.658Z,5.17
2023-04-20T11:33:58.561Z,5.17
2023-04-20T11:35:06.055Z,5.14
2023-04-20T11:35:59.620Z,5.15
2023-04-20T11:36:58.515Z,5.17
2023-04-20T11:37:58.508Z,5.12
2023-04-20T11:38:58.508Z,5.15
2023-04-20T11:39:58.483Z,5.09
2023-04-20T11:40:58.465Z,5.13
2023-04-20T11:41:58.461Z,5.03
2023-04-20T11:42:58.425Z,5.03
2023-04-20T11:43:58.478Z,4.88
2023-04-20T11:44:58.401Z,4.89
2023-04-20T11:45:58.383Z,4.88
2023-04-20T11:46:58.348Z,4.78
2023-04-20T11:47:59.219Z,4.83
2023-04-20T11:48:58.280Z,4.83
2023-04-20T11:49:58.285Z,4.76
2023-04-20T11:50:58.253Z,4.76
2023-04-20T11:51:58.256Z,4.74
2023-04-20T11:52:58.238Z,4.70
2023-04-20T11:53:58.193Z,4.78
2023-04-20T11:54:58.171Z,4.65
2023-04-20T11:55:58.163Z,4.67
2023-04-20T11:56:58.156Z,4.66
2023-04-20T11:57:58.263Z,4.60
2023-04-20T11:58:58.098Z,4.53
2023-04-20T11:59:58.088Z,4.54
2023-04-20T12:00:58.189Z,4.53
2023-04-20T12:01:58.172Z,4.52
2023-04-20T12:02:58.235Z,4.46
2023-04-20T12:03:58.195Z,4.46
2023-04-20T12:04:58.232Z,4.45
2023-04-20T12:05:57.963Z,4.48
2023-04-20T12:06:58.222Z,4.48
2023-04-20T12:07:57.921Z,4.51
2023-04-20T12:08:58.619Z,4.58
2023-04-20T12:09:57.886Z,4.56
2023-04-20T12:10:58.638Z,4.57
2023-04-20T12:11:57.834Z,4.58
2023-04-20T12:12:58.624Z,4.54
2023-04-20T12:13:58.543Z,4.43
2023-04-20T12:14:57.827Z,4.46
2023-04-20T12:15:57.825Z,4.53
2023-04-20T12:16:58.661Z,4.56
2023-04-20T12:17:57.723Z,4.51
2023-04-20T12:18:57.700Z,4.47
2023-04-20T12:19:57.690Z,4.43
2023-04-20T12:20:57.696Z,4.42
2023-04-20T12:21:57.704Z,4.38
2023-04-20T12:22:58.959Z,4.25
2023-04-20T12:23:57.638Z,4.28
2023-04-20T12:24:57.640Z,4.34
2023-04-20T12:25:58.608Z,4.35
2023-04-20T12:26:57.593Z,4.29
2023-04-20T12:27:57.568Z,4.24
2023-04-20T12:28:57.552Z,4.20
2023-04-20T12:29:57.532Z,4.20
2023-04-20T12:30:57.718Z,4.20
2023-04-20T12:31:57.545Z,4.21
2023-04-20T12:32:58.060Z,4.13
2023-04-20T12:33:57.457Z,4.10
2023-04-20T12:34:57.445Z,4.08
2023-04-20T12:35:57.399Z,4.03
2023-04-20T12:36:57.384Z,3.98
2023-04-20T12:37:57.371Z,4.01
2023-04-20T12:38:57.364Z,3.92
2023-04-20T12:39:57.335Z,3.92
2023-04-20T12:40:57.325Z,3.92
2023-04-20T12:41:57.302Z,3.79
2023-04-20T12:42:57.284Z,3.86
2023-04-20T12:43:57.262Z,3.83
2023-04-20T12:44:57.249Z,3.85
2023-04-20T12:45:57.227Z,3.82
2023-04-20T12:46:57.244Z,3.80
2023-04-20T12:47:58.481Z,3.85
2023-04-20T12:48:58.153Z,3.87
2023-04-20T12:49:57.643Z,4.00
2023-04-20T12:50:57.134Z,3.81
2023-04-20T12:51:57.123Z,3.81
2023-04-20T12:52:57.087Z,3.87
2023-04-20T12:53:57.065Z,3.81
2023-04-20T12:54:57.058Z,3.80
2023-04-20T12:56:01.083Z,3.79
2023-04-20T12:56:57.022Z,3.80
2023-04-20T12:57:56.998Z,3.81
2023-04-20T12:58:56.983Z,3.81
2023-04-20T12:59:56.968Z,3.80
2023-04-20T13:00:57.018Z,3.83
2023-04-20T13:01:56.968Z,3.78
2023-04-20T13:02:57.218Z,3.76
2023-04-20T13:03:57.150Z,3.78
2023-04-20T13:04:56.940Z,3.72
2023-04-20T13:05:56.915Z,3.74
2023-04-20T13:06:56.911Z,3.67
2023-04-20T13:07:56.884Z,3.74
2023-04-20T13:08:56.888Z,3.75
2023-04-20T13:09:56.968Z,3.67
2023-04-20T13:10:56.847Z,3.69
2023-04-20T13:11:56.935Z,3.69
2023-04-20T13:12:56.848Z,3.69
2023-04-20T13:13:56.825Z,3.68
2023-04-20T13:14:56.807Z,3.70
2023-04-20T13:15:56.867Z,3.69
2023-04-20T13:16:56.838Z,3.72